createdAt,value
2022-09-11T00:00:23.738Z,36.80
2022-09-11T00:03:47.245Z,36.80
2022-09-11T00:06:49.778Z,36.80
2022-09-11T00:09:51.622Z,36.80
2022-09-11T00:12:54.039Z,36.80
2022-09-11T00:15:55.966Z,36.70
2022-09-11T00:19:00.135Z,36.50
2022-09-11T00:22:02.058Z,36.60
2022-09-11T00:25:04.316Z,36.50
2022-09-11T00:28:06.648Z,36.60
2022-09-11T00:31:14.519Z,36.50
2022-09-11T00:34:17.300Z,36.50
2022-09-11T00:37:19.332Z,36.50
2022-09-11T00:40:23.118Z,36.50
2022-09-11T00:43:28.086Z,36.50
2022-09-11T00:46:53.278Z,36.50
2022-09-11T00:49:59.663Z,36.60
2022-09-11T00:53:07.597Z,36.70
2022-09-11T00:56:11.215Z,36.70
2022-09-11T00:59:14.021Z,36.70
2022-09-11T01:02:19.403Z,36.80
2022-09-11T01:05:24.874Z,36.80
2022-09-11T01:08:27.752Z,36.80
2022-09-11T01:11:38.757Z,36.80
2022-09-11T01:14:59.647Z,36.80
2022-09-11T01:18:26.071Z,36.80
2022-09-11T01:21:52.540Z,36.80
2022-09-11T01:25:17.657Z,36.80
2022-09-11T01:28:44.100Z,36.80
2022-09-11T01:31:58.320Z,36.80
2022-09-11T01:35:03.505Z,36.80
2022-09-11T01:38:17.575Z,36.80
2022-09-11T01:41:42.642Z,36.80
2022-09-11T01:44:54.154Z,36.80
2022-09-11T01:47:58.666Z,36.80
2022-09-11T01:51:02.590Z,36.80
2022-09-11T01:54:09.473Z,36.70
2022-09-11T01:57:27.579Z,36.80
2022-09-11T02:00:32.495Z,36.60
2022-09-11T02:03:50.516Z,36.60
2022-09-11T02:06:59.210Z,36.50
2022-09-11T02:10:07.408Z,36.40
2022-09-11T02:13:36.527Z,36.40
2022-09-11T02:16:47.631Z,36.40
2022-09-11T02:19:49.802Z,36.50
2022-09-11T02:22:53.065Z,36.50
2022-09-11T02:25:55.106Z,36.60
2022-09-11T02:28:57.059Z,36.60
2022-09-11T02:32:01.253Z,36.60
2022-09-11T02:35:03.792Z,36.60
2022-09-11T02:38:21.200Z,36.60
2022-09-11T02:41:30.999Z,36.60
2022-09-11T02:44:57.403Z,36.60
2022-09-11T02:48:25.288Z,36.70
2022-09-11T02:51:34.781Z,36.70
2022-09-11T02:54:45.886Z,36.70
2022-09-11T02:58:05.891Z,36.70
2022-09-11T03:01:08.795Z,36.70
2022-09-11T03:04:10.878Z,36.70
2022-09-11T03:07:12.709Z,36.70
2022-09-11T03:10:14.918Z,36.70
2022-09-11T03:13:16.844Z,36.80
2022-09-11T03:16:19.120Z,36.70
2022-09-11T03:19:21.025Z,36.70
2022-09-11T03:22:23.081Z,36.70
2022-09-11T03:25:28.206Z,36.70
2022-09-11T03:28:31.075Z,36.70
2022-09-11T03:31:36.216Z,36.70
2022-09-11T03:34:40.625Z,36.70
2022-09-11T03:37:42.583Z,36.70
2022-09-11T03:40:44.961Z,36.70
2022-09-11T03:43:46.921Z,36.70
2022-09-11T03:46:50.132Z,36.70
2022-09-11T03:49:51.946Z,36.70
2022-09-11T03:52:54.140Z,36.70
2022-09-11T03:55:56.051Z,36.70
2022-09-11T03:59:00.186Z,36.70
2022-09-11T04:02:02.128Z,36.70
2022-09-11T04:05:04.601Z,36.70
2022-09-11T04:08:06.582Z,36.70
2022-09-11T04:11:11.594Z,36.60
2022-09-11T04:14:13.472Z,36.50
2022-09-11T04:17:15.557Z,36.40
2022-09-11T04:20:17.488Z,36.30
2022-09-11T04:23:19.521Z,36.20
2022-09-11T04:26:23.565Z,36.20
2022-09-11T04:29:26.405Z,36.30
2022-09-11T04:32:29.254Z,36.30
2022-09-11T04:35:39.552Z,36.30
2022-09-11T04:38:41.551Z,36.30
2022-09-11T04:41:44.371Z,36.20
2022-09-11T04:44:46.928Z,36.30
2022-09-11T04:47:52.927Z,36.30
2022-09-11T04:51:03.507Z,36.30
2022-09-11T04:54:06.246Z,36.40
2022-09-11T04:57:09.124Z,36.40
2022-09-11T05:00:11.777Z,36.30
2022-09-11T05:03:13.693Z,36.30
2022-09-11T05:06:16.416Z,36.40
2022-09-11T05:09:19.162Z,36.40
2022-09-11T05:12:21.766Z,36.40
2022-09-11T05:15:23.942Z,36.40
2022-09-11T05:18:25.966Z,36.50
2022-09-11T05:21:28.787Z,36.60
2022-09-11T05:24:30.943Z,36.60
2022-09-11T05:27:32.873Z,36.60
2022-09-11T05:30:34.916Z,36.70
2022-09-11T05:33:36.844Z,36.70
2022-09-11T05:36:38.884Z,36.70
2022-09-11T05:39:40.831Z,36.80
2022-09-11T05:42:42.918Z,36.80
2022-09-11T05:45:45.797Z,36.90
2022-09-11T05:48:49.068Z,36.90
2022-09-11T05:51:50.973Z,36.90
2022-09-11T05:54:53.691Z,37.00
2022-09-11T05:57:55.606Z,37.00
2022-09-11T06:01:09.513Z,37.20
2022-09-11T06:04:12.328Z,37.10
2022-09-11T06:07:14.539Z,36.90
2022-09-11T06:10:16.983Z,36.70
2022-09-11T06:13:19.061Z,36.60
2022-09-11T06:16:23.511Z,36.60
2022-09-11T06:19:25.610Z,36.40
2022-09-11T06:22:29.691Z,36.50
2022-09-11T06:25:32.333Z,36.40
2022-09-11T06:28:35.844Z,36.60
2022-09-11T06:31:38.797Z,36.50
2022-09-11T06:34:40.654Z,36.60
2022-09-11T06:37:42.696Z,36.40
2022-09-11T06:40:44.625Z,36.30
2022-09-11T06:43:46.843Z,36.20
2022-09-11T06:46:48.708Z,36.20
2022-09-11T06:49:50.746Z,36.10
2022-09-11T06:52:53.284Z,36.20
2022-09-11T06:55:59.681Z,35.50
2022-09-11T06:59:01.565Z,35.60
2022-09-11T07:02:03.964Z,35.10
2022-09-11T07:05:06.189Z,35.00
2022-09-11T07:08:08.201Z,35.20
2022-09-11T07:11:12.761Z,35.30
2022-09-11T07:14:21.124Z,34.60
2022-09-11T07:17:23.163Z,34.30
2022-09-11T07:20:25.609Z,34.70
2022-09-11T07:23:27.632Z,34.50
2022-09-11T07:26:30.384Z,34.10
2022-09-11T07:29:32.406Z,34.20
2022-09-11T07:32:34.435Z,34.60
2022-09-11T07:35:39.149Z,34.70
2022-09-11T07:38:42.987Z,35.30
2022-09-11T07:41:44.957Z,35.60
2022-09-11T07:44:47.359Z,35.90
2022-09-11T07:47:49.222Z,35.60
2022-09-11T07:50:59.003Z,35.60
2022-09-11T07:54:01.262Z,35.60
2022-09-11T07:57:03.349Z,35.90
2022-09-11T08:00:07.057Z,35.50
2022-09-11T08:03:09.323Z,35.30
2022-09-11T08:06:21.538Z,35.10
2022-09-11T08:09:27.124Z,35.30
2022-09-11T08:12:28.980Z,34.90
2022-09-11T08:15:31.026Z,34.00
2022-09-11T08:18:35.237Z,33.60
2022-09-11T08:21:37.505Z,33.40
2022-09-11T08:24:39.345Z,34.00
